Grand Bend, Canada
Current Conditions -  °F | °C
As of 6:00 AM on Saturday 25 Oct 2014 (Local Time) from CYZR Reporting Station
Broken Clouds Broken Clouds  
Wind Chill: 46°   Ceiling: 9500
Heat Index: 48°   Visibility: 3mi
Dew Point: 46°   Wind: 6mph
Humidity: 93%   Direction: 190°S
Pressure: 29.84"   Gusts: NA
Location:  43.32°N, 81.75°W
Report Text: CYZR 251000Z AUTO 19005KT 3SM BKN095 09/08 A2984 RMK SLP108
Loading
Personal Weather Stations






























Interactive Weather Map
Tropical Storm Tracking
New forecast layout! Learn more

10-Day Weather Forecast

Advertisements
Track Severe Weather on mobile